sensor_id;sensor_type;location;lat;lon;timestamp;pressure;altitude;pressure_sealevel;temperature;humidity
8334;BME280;4204;43.004;23.052;2023-01-01T00:00:37;95152.50;;;3.15;100.00
8334;BME280;4204;43.004;23.052;2023-01-01T00:03:04;95162.19;;;3.15;100.00
8334;BME280;4204;43.004;23.052;2023-01-01T00:05:33;95172.03;;;3.19;100.00
8334;BME280;4204;43.004;23.052;2023-01-01T00:08:04;95181.03;;;3.23;100.00
8334;BME280;4204;43.004;23.052;2023-01-01T00:10:32;95184.91;;;3.33;100.00
8334;BME280;4204;43.004;23.052;2023-01-01T00:13:00;95180.59;;;3.15;100.00
8334;BME280;4204;43.004;23.052;2023-01-01T00:15:28;95166.00;;;3.07;100.00
8334;BME280;4204;43.004;23.052;2023-01-01T00:17:55;95171.69;;;3.16;100.00
8334;BME280;4204;43.004;23.052;2023-01-01T00:20:24;95173.06;;;3.18;100.00
8334;BME280;4204;43.004;23.052;2023-01-01T00:22:54;95172.13;;;3.24;100.00
8334;BME280;4204;43.004;23.052;2023-01-01T00:25:21;95168.94;;;3.22;100.00
8334;BME280;4204;43.004;23.052;2023-01-01T00:27:49;95168.38;;;3.09;100.00
8334;BME280;4204;43.004;23.052;2023-01-01T00:30:17;95174.63;;;2.91;100.00
8334;BME280;4204;43.004;23.052;2023-01-01T00:32:45;95185.25;;;2.85;100.00
8334;BME280;4204;43.004;23.052;2023-01-01T00:35:13;95187.28;;;2.94;100.00
8334;BME280;4204;43.004;23.052;2023-01-01T00:37:40;95187.03;;;3.07;100.00
8334;BME280;4204;43.004;23.052;2023-01-01T00:40:10;95177.16;;;3.71;100.00
8334;BME280;4204;43.004;23.052;2023-01-01T00:42:38;95183.63;;;3.35;100.00
8334;BME280;4204;43.004;23.052;2023-01-01T00:45:07;95187.59;;;3.09;100.00
8334;BME280;4204;43.004;23.052;2023-01-01T00:47:35;95189.25;;;2.87;100.00
8334;BME280;4204;43.004;23.052;2023-01-01T00:50:03;95194.38;;;2.82;100.00
8334;BME280;4204;43.004;23.052;2023-01-01T00:52:31;95192.91;;;2.86;100.00
8334;BME280;4204;43.004;23.052;2023-01-01T00:54:59;95190.63;;;2.78;100.00
8334;BME280;4204;43.004;23.052;2023-01-01T00:57:28;95196.69;;;2.79;100.00
8334;BME280;4204;43.004;23.052;2023-01-01T00:59:56;95197.38;;;2.74;100.00
8334;BME280;4204;43.004;23.052;2023-01-01T01:02:23;95198.06;;;2.70;100.00
8334;BME280;4204;43.004;23.052;2023-01-01T01:04:51;95196.94;;;2.77;100.00
8334;BME280;4204;43.004;23.052;2023-01-01T01:07:18;95199.44;;;2.72;100.00
8334;BME280;4204;43.004;23.052;2023-01-01T01:09:46;95198.97;;;2.75;100.00
8334;BME280;4204;43.004;23.052;2023-01-01T01:12:14;95192.69;;;2.76;100.00
8334;BME280;4204;43.004;23.052;2023-01-01T01:14:43;95196.00;;;2.83;100.00
8334;BME280;4204;43.004;23.052;2023-01-01T01:17:11;95191.19;;;2.80;100.00
8334;BME280;4204;43.004;23.052;2023-01-01T01:19:38;95196.31;;;2.75;100.00
8334;BME280;4204;43.004;23.052;2023-01-01T01:22:06;95194.09;;;3.18;100.00
8334;BME280;4204;43.004;23.052;2023-01-01T01:24:33;95199.94;;;3.49;100.00
8334;BME280;4204;43.004;23.052;2023-01-01T01:27:01;95189.75;;;3.69;100.00
8334;BME280;4204;43.004;23.052;2023-01-01T01:29:29;95196.25;;;3.78;100.00
8334;BME280;4204;43.004;23.052;2023-01-01T01:31:58;95200.72;;;3.49;100.00
8334;BME280;4204;43.004;23.052;2023-01-01T01:34:25;95189.25;;;3.27;100.00
8334;BME280;4204;43.004;23.052;2023-01-01T01:36:53;95191.47;;;3.07;100.00
8334;BME280;4204;43.004;23.052;2023-01-01T01:39:21;95185.22;;;2.96;100.00
8334;BME280;4204;43.004;23.052;2023-01-01T01:41:48;95188.00;;;2.78;100.00
8334;BME280;4204;43.004;23.052;2023-01-01T01:44:48;95189.53;;;2.63;100.00
8334;BME280;4204;43.004;23.052;2023-01-01T01:47:21;95188.22;;;2.65;100.00
8334;BME280;4204;43.004;23.052;2023-01-01T01:49:52;95189.41;;;2.58;100.00
8334;BME280;4204;43.004;23.052;2023-01-01T01:52:21;95187.44;;;2.53;100.00
8334;BME280;4204;43.004;23.052;2023-01-01T01:54:49;95191.66;;;2.66;100.00
8334;BME280;4204;43.004;23.052;2023-01-01T01:57:17;95185.28;;;2.62;100.00
8334;BME280;4204;43.004;23.052;2023-01-01T01:59:47;95195.91;;;2.67;100.00
8334;BME280;4204;43.004;23.052;2023-01-01T02:02:22;95191.06;;;2.75;100.00
8334;BME280;4204;43.004;23.052;2023-01-01T02:04:53;95192.56;;;2.71;100.00
8334;BME280;4204;43.004;23.052;2023-01-01T02:07:21;95188.44;;;2.75;100.00
8334;BME280;4204;43.004;23.052;2023-01-01T02:09:51;95190.31;;;2.75;100.00
8334;BME280;4204;43.004;23.052;2023-01-01T02:12:20;95183.06;;;2.82;100.00
8334;BME280;4204;43.004;23.052;2023-01-01T02:14:47;95185.38;;;2.78;100.00
8334;BME280;4204;43.004;23.052;2023-01-01T02:17:22;95185.00;;;2.86;100.00
8334;BME280;4204;43.004;23.052;2023-01-01T02:20:02;95180.13;;;2.78;100.00
8334;BME280;4204;43.004;23.052;2023-01-01T02:23:03;95186.19;;;2.79;100.00
8334;BME280;4204;43.004;23.052;2023-01-01T02:25:47;95191.53;;;2.84;100.00
8334;BME280;4204;43.004;23.052;2023-01-01T02:28:33;95186.06;;;2.85;100.00
8334;BME280;4204;43.004;23.052;2023-01-01T02:31:04;95182.63;;;2.85;100.00
8334;BME280;4204;43.004;23.052;2023-01-01T02:33:33;95179.75;;;2.86;100.00
8334;BME280;4204;43.004;23.052;2023-01-01T02:36:02;95178.59;;;2.94;100.00
8334;BME280;4204;43.004;23.052;2023-01-01T02:38:33;95178.38;;;2.95;100.00
8334;BME280;4204;43.004;23.052;2023-01-01T02:41:05;95176.28;;;3.09;100.00
8334;BME280;4204;43.004;23.052;2023-01-01T02:43:37;95179.16;;;3.07;100.00
8334;BME280;4204;43.004;23.052;2023-01-01T02:46:06;95176.59;;;3.12;100.00
8334;BME280;4204;43.004;23.052;2023-01-01T02:48:38;95166.44;;;3.44;100.00
8334;BME280;4204;43.004;23.052;2023-01-01T02:51:13;95171.75;;;2.93;100.00
8334;BME280;4204;43.004;23.052;2023-01-01T02:53:46;95166.88;;;2.62;100.00
8334;BME280;4204;43.004;23.052;2023-01-01T02:56:24;95175.00;;;2.48;100.00
8334;BME280;4204;43.004;23.052;2023-01-01T02:59:07;95168.97;;;2.36;100.00
8334;BME280;4204;43.004;23.052;2023-01-01T03:01:59;95163.38;;;2.33;100.00
8334;BME280;4204;43.004;23.052;2023-01-01T03:04:34;95155.59;;;2.38;100.00
8334;BME280;4204;43.004;23.052;2023-01-01T03:07:11;95170.91;;;2.41;100.00
8334;BME280;4204;43.004;23.052;2023-01-01T03:09:44;95154.00;;;2.37;100.00
8334;BME280;4204;43.004;23.052;2023-01-01T03:12:20;95168.38;;;2.34;100.00
8334;BME280;4204;43.004;23.052;2023-01-01T03:14:54;95175.69;;;2.32;100.00
8334;BME280;4204;43.004;23.052;2023-01-01T03:17:27;95167.50;;;2.29;100.00
8334;BME280;4204;43.004;23.052;2023-01-01T03:19:58;95165.88;;;2.28;100.00
8334;BME280;4204;43.004;23.052;2023-01-01T03:22:32;95168.06;;;2.31;100.00
8334;BME280;4204;43.004;23.052;2023-01-01T03:25:06;95173.53;;;2.29;100.00
8334;BME280;4204;43.004;23.052;2023-01-01T03:27:38;95174.00;;;2.26;100.00
8334;BME280;4204;43.004;23.052;2023-01-01T03:30:11;95168.28;;;2.29;100.00
8334;BME280;4204;43.004;23.052;2023-01-01T03:32:44;95175.94;;;2.31;100.00
8334;BME280;4204;43.004;23.052;2023-01-01T03:35:36;95175.34;;;2.40;100.00
8334;BME280;4204;43.004;23.052;2023-01-01T03:38:08;95172.72;;;2.64;100.00
8334;BME280;4204;43.004;23.052;2023-01-01T03:40:38;95169.41;;;2.68;100.00
8334;BME280;4204;43.004;23.052;2023-01-01T03:43:09;95178.31;;;2.21;100.00
8334;BME280;4204;43.004;23.052;2023-01-01T03:45:44;95180.59;;;2.17;100.00
8334;BME280;4204;43.004;23.052;2023-01-01T03:48:14;95168.84;;;2.08;100.00
8334;BME280;4204;43.004;23.052;2023-01-01T03:50:52;95172.81;;;1.88;100.00
8334;BME280;4204;43.004;23.052;2023-01-01T03:53:32;95166.75;;;1.76;100.00
8334;BME280;4204;43.004;23.052;2023-01-01T03:56:07;95170.16;;;1.76;100.00
8334;BME280;4204;43.004;23.052;2023-01-01T03:58:44;95168.94;;;1.90;100.00
8334;BME280;4204;43.004;23.052;2023-01-01T04:01:20;95159.94;;;1.98;100.00
8334;BME280;4204;43.004;23.052;2023-01-01T04:03:48;95155.25;;;2.00;100.00
8334;BME280;4204;43.004;23.052;2023-01-01T04:06:17;95154.81;;;2.14;100.00
8334;BME280;4204;43.004;23.052;2023-01-01T04:08:45;95160.63;;;2.28;100.00
8334;BME280;4204;43.004;23.052;2023-01-01T04:11:18;95158.00;;;2.39;100.00
8334;BME280;4204;43.004;23.052;2023-01-01T04:14:04;95172.94;;;2.16;100.00
8334;BME280;4204;43.004;23.052;2023-01-01T04:16:34;95171.00;;;2.11;100.00
8334;BME280;4204;43.004;23.052;2023-01-01T04:19:02;95157.97;;;1.93;100.00
8334;BME280;4204;43.004;23.052;2023-01-01T04:21:32;95163.22;;;1.93;100.00
8334;BME280;4204;43.004;23.052;2023-01-01T04:24:00;95159.59;;;2.06;100.00
8334;BME280;4204;43.004;23.052;2023-01-01T04:26:27;95160.84;;;1.92;100.00
8334;BME280;4204;43.004;23.052;2023-01-01T04:28:55;95166.19;;;1.97;100.00
8334;BME280;4204;43.004;23.052;2023-01-01T04:31:23;95167.22;;;1.96;100.00
8334;BME280;4204;43.004;23.052;2023-01-01T04:33:53;95166.44;;;1.95;100.00
8334;BME280;4204;43.004;23.052;2023-01-01T04:36:21;95173.63;;;1.88;100.00
8334;BME280;4204;43.004;23.052;2023-01-01T04:38:49;95173.06;;;1.98;100.00
8334;BME280;4204;43.004;23.052;2023-01-01T04:41:16;95171.34;;;2.61;100.00
8334;BME280;4204;43.004;23.052;2023-01-01T04:43:46;95171.59;;;2.25;100.00
8334;BME280;4204;43.004;23.052;2023-01-01T04:46:16;95172.25;;;1.97;100.00
8334;BME280;4204;43.004;23.052;2023-01-01T04:48:44;95168.00;;;1.85;100.00
8334;BME280;4204;43.004;23.052;2023-01-01T04:51:15;95174.88;;;1.86;100.00
8334;BME280;4204;43.004;23.052;2023-01-01T04:53:42;95170.28;;;1.81;100.00
8334;BME280;4204;43.004;23.052;2023-01-01T04:56:12;95156.03;;;1.89;100.00
8334;BME280;4204;43.004;23.052;2023-01-01T04:58:41;95164.84;;;1.94;100.00
8334;BME280;4204;43.004;23.052;2023-01-01T05:01:14;95160.59;;;1.93;100.00
8334;BME280;4204;43.004;23.052;2023-01-01T05:03:42;95169.88;;;2.42;100.00
8334;BME280;4204;43.004;23.052;2023-01-01T05:06:11;95174.31;;;3.16;100.00
8334;BME280;4204;43.004;23.052;2023-01-01T05:08:42;95174.13;;;3.06;100.00
8334;BME280;4204;43.004;23.052;2023-01-01T05:11:12;95176.81;;;2.71;100.00
8334;BME280;4204;43.004;23.052;2023-01-01T05:13:41;95180.50;;;2.47;100.00
8334;BME280;4204;43.004;23.052;2023-01-01T05:16:11;95175.34;;;2.17;100.00
8334;BME280;4204;43.004;23.052;2023-01-01T05:18:39;95172.91;;;1.93;100.00
8334;BME280;4204;43.004;23.052;2023-01-01T05:21:09;95173.72;;;1.82;100.00
8334;BME280;4204;43.004;23.052;2023-01-01T05:23:37;95178.50;;;1.85;100.00
8334;BME280;4204;43.004;23.052;2023-01-01T05:26:10;95181.84;;;2.03;100.00
8334;BME280;4204;43.004;23.052;2023-01-01T05:28:39;95183.22;;;2.40;100.00
8334;BME280;4204;43.004;23.052;2023-01-01T05:31:07;95188.22;;;2.65;100.00
8334;BME280;4204;43.004;23.052;2023-01-01T05:33:36;95192.69;;;2.76;100.00
8334;BME280;4204;43.004;23.052;2023-01-01T05:36:05;95190.03;;;2.88;100.00
8334;BME280;4204;43.004;23.052;2023-01-01T05:38:34;95203.31;;;2.81;100.00
8334;BME280;4204;43.004;23.052;2023-01-01T05:41:05;95197.34;;;2.86;100.00
8334;BME280;4204;43.004;23.052;2023-01-01T05:43:37;95211.28;;;2.86;100.00
8334;BME280;4204;43.004;23.052;2023-01-01T05:46:06;95203.22;;;2.53;100.00
8334;BME280;4204;43.004;23.052;2023-01-01T05:48:34;95205.03;;;2.29;100.00
8334;BME280;4204;43.004;23.052;2023-01-01T05:51:03;95207.66;;;2.18;100.00
8334;BME280;4204;43.004;23.052;2023-01-01T05:53:31;95211.19;;;2.12;100.00
8334;BME280;4204;43.004;23.052;2023-01-01T05:55:59;95221.66;;;2.00;100.00
8334;BME280;4204;43.004;23.052;2023-01-01T05:58:28;95211.94;;;2.01;100.00
8334;BME280;4204;43.004;23.052;2023-01-01T06:01:06;95216.66;;;2.10;100.00
8334;BME280;4204;43.004;23.052;2023-01-01T06:03:34;95215.19;;;2.14;100.00
8334;BME280;4204;43.004;23.052;2023-01-01T06:06:03;95215.59;;;2.00;100.00
8334;BME280;4204;43.004;23.052;2023-01-01T06:08:31;95218.22;;;1.88;100.00
8334;BME280;4204;43.004;23.052;2023-01-01T06:11:00;95215.03;;;1.86;100.00
8334;BME280;4204;43.004;23.052;2023-01-01T06:13:28;95216.94;;;1.79;100.00
8334;BME280;4204;43.004;23.052;2023-01-01T06:15:56;95218.75;;;1.79;100.00
8334;BME280;4204;43.004;23.052;2023-01-01T06:18:29;95216.59;;;1.87;100.00
8334;BME280;4204;43.004;23.052;2023-01-01T06:21:03;95214.22;;;1.97;100.00
8334;BME280;4204;43.004;23.052;2023-01-01T06:23:31;95210.78;;;1.97;100.00
8334;BME280;4204;43.004;23.052;2023-01-01T06:26:07;95215.03;;;1.98;100.00
8334;BME280;4204;43.004;23.052;2023-01-01T06:28:35;95216.84;;;1.97;100.00
8334;BME280;4204;43.004;23.052;2023-01-01T06:31:04;95220.75;;;2.06;100.00
8334;BME280;4204;43.004;23.052;2023-01-01T06:33:33;95212.56;;;2.14;100.00
8334;BME280;4204;43.004;23.052;2023-01-01T06:36:02;95213.59;;;2.25;100.00
8334;BME280;4204;43.004;23.052;2023-01-01T06:38:30;95220.56;;;2.31;100.00
8334;BME280;4204;43.004;23.052;2023-01-01T06:41:00;95225.91;;;2.36;100.00
8334;BME280;4204;43.004;23.052;2023-01-01T06:43:29;95226.63;;;2.43;100.00
8334;BME280;4204;43.004;23.052;2023-01-01T06:45:59;95213.91;;;3.38;100.00
8334;BME280;4204;43.004;23.052;2023-01-01T06:48:28;95229.69;;;2.86;100.00
8334;BME280;4204;43.004;23.052;2023-01-01T06:50:57;95230.84;;;2.44;100.00
8334;BME280;4204;43.004;23.052;2023-01-01T06:53:25;95232.97;;;2.24;100.00
8334;BME280;4204;43.004;23.052;2023-01-01T06:55:53;95230.47;;;2.17;100.00
8334;BME280;4204;43.004;23.052;2023-01-01T06:58:21;95230.69;;;2.16;100.00
8334;BME280;4204;43.004;23.052;2023-01-01T07:00:48;95230.25;;;2.19;100.00
8334;BME280;4204;43.004;23.052;2023-01-01T07:03:16;95232.19;;;2.23;100.00
8334;BME280;4204;43.004;23.052;2023-01-01T07:05:44;95230.25;;;2.30;100.00
8334;BME280;4204;43.004;23.052;2023-01-01T07:08:13;95225.47;;;2.27;100.00
8334;BME280;4204;43.004;23.052;2023-01-01T07:10:40;95232.53;;;2.27;100.00
8334;BME280;4204;43.004;23.052;2023-01-01T07:13:08;95217.13;;;2.30;100.00
8334;BME280;4204;43.004;23.052;2023-01-01T07:15:36;95212.47;;;2.44;100.00
8334;BME280;4204;43.004;23.052;2023-01-01T07:18:04;95213.38;;;2.50;100.00
8334;BME280;4204;43.004;23.052;2023-01-01T07:20:31;95219.66;;;2.60;100.00
8334;BME280;4204;43.004;23.052;2023-01-01T07:23:00;95211.28;;;2.86;100.00
8334;BME280;4204;43.004;23.052;2023-01-01T07:25:29;95211.69;;;3.06;100.00
8334;BME280;4204;43.004;23.052;2023-01-01T07:27:57;95223.03;;;3.07;100.00
8334;BME280;4204;43.004;23.052;2023-01-01T07:30:25;95219.59;;;3.18;100.00
8334;BME280;4204;43.004;23.052;2023-01-01T07:32:55;95228.34;;;3.23;100.00
8334;BME280;4204;43.004;23.052;2023-01-01T07:35:23;95218.97;;;3.27;100.00
8334;BME280;4204;43.004;23.052;2023-01-01T07:37:51;95229.00;;;3.42;100.00
8334;BME280;4204;43.004;23.052;2023-01-01T07:40:18;95218.78;;;3.46;100.00
8334;BME280;4204;43.004;23.052;2023-01-01T07:42:47;95215.81;;;3.54;100.00
8334;BME280;4204;43.004;23.052;2023-01-01T07:45:15;95225.28;;;3.55;100.00
8334;BME280;4204;43.004;23.052;2023-01-01T07:47:45;95221.72;;;3.61;100.00
8334;BME280;4204;43.004;23.052;2023-01-01T07:50:16;95223.16;;;3.52;100.00
8334;BME280;4204;43.004;23.052;2023-01-01T07:52:44;95217.78;;;3.47;100.00
8334;BME280;4204;43.004;23.052;2023-01-01T07:55:12;95228.72;;;3.55;100.00
8334;BME280;4204;43.004;23.052;2023-01-01T07:57:40;95231.22;;;3.62;100.00
8334;BME280;4204;43.004;23.052;2023-01-01T08:00:12;95233.47;;;3.70;100.00
8334;BME280;4204;43.004;23.052;2023-01-01T08:02:43;95226.44;;;3.87;100.00
8334;BME280;4204;43.004;23.052;2023-01-01T08:05:11;95230.53;;;4.11;100.00
8334;BME280;4204;43.004;23.052;2023-01-01T08:07:39;95226.44;;;4.37;100.00
8334;BME280;4204;43.004;23.052;2023-01-01T08:10:08;95228.28;;;4.69;100.00
8334;BME280;4204;43.004;23.052;2023-01-01T08:12:36;95226.59;;;4.80;100.00
8334;BME280;4204;43.004;23.052;2023-01-01T08:15:04;95226.31;;;4.98;100.00
8334;BME280;4204;43.004;23.052;2023-01-01T08:17:33;95236.09;;;5.19;100.00
8334;BME280;4204;43.004;23.052;2023-01-01T08:20:01;95234.56;;;5.23;100.00
8334;BME280;4204;43.004;23.052;2023-01-01T08:22:29;95241.63;;;5.39;100.00
8334;BME280;4204;43.004;23.052;2023-01-01T08:24:56;95245.59;;;5.63;100.00
8334;BME280;4204;43.004;23.052;2023-01-01T08:27:24;95248.63;;;5.99;100.00
8334;BME280;4204;43.004;23.052;2023-01-01T08:29:52;95243.13;;;6.27;100.00
8334;BME280;4204;43.004;23.052;2023-01-01T08:32:20;95240.91;;;6.45;100.00
8334;BME280;4204;43.004;23.052;2023-01-01T08:34:49;95250.22;;;6.58;100.00
8334;BME280;4204;43.004;23.052;2023-01-01T08:37:17;95242.69;;;6.72;100.00
8334;BME280;4204;43.004;23.052;2023-01-01T08:39:48;95245.19;;;6.93;100.00
8334;BME280;4204;43.004;23.052;2023-01-01T08:42:16;95246.59;;;7.01;100.00
8334;BME280;4204;43.004;23.052;2023-01-01T08:44:44;95243.22;;;7.15;100.00
8334;BME280;4204;43.004;23.052;2023-01-01T08:47:17;95250.72;;;7.33;100.00
8334;BME280;4204;43.004;23.052;2023-01-01T08:49:45;95248.41;;;7.42;100.00
8334;BME280;4204;43.004;23.052;2023-01-01T08:52:14;95242.09;;;7.58;100.00
8334;BME280;4204;43.004;23.052;2023-01-01T08:54:42;95239.53;;;7.73;100.00
8334;BME280;4204;43.004;23.052;2023-01-01T08:57:10;95249.34;;;7.83;100.00
8334;BME280;4204;43.004;23.052;2023-01-01T08:59:38;95246.47;;;7.94;100.00
8334;BME280;4204;43.004;23.052;2023-01-01T09:02:06;95238.00;;;8.02;100.00
8334;BME280;4204;43.004;23.052;2023-01-01T09:04:34;95242.81;;;8.10;100.00
8334;BME280;4204;43.004;23.052;2023-01-01T09:07:02;95235.13;;;8.24;100.00
8334;BME280;4204;43.004;23.052;2023-01-01T09:09:31;95231.22;;;8.42;100.00
8334;BME280;4204;43.004;23.052;2023-01-01T09:12:00;95238.63;;;8.55;100.00
8334;BME280;4204;43.004;23.052;2023-01-01T09:14:31;95229.88;;;8.59;100.00
8334;BME280;4204;43.004;23.052;2023-01-01T09:17:00;95221.63;;;8.76;100.00
8334;BME280;4204;43.004;23.052;2023-01-01T09:19:27;95228.53;;;8.87;100.00
8334;BME280;4204;43.004;23.052;2023-01-01T09:21:55;95217.38;;;8.80;100.00
8334;BME280;4204;43.004;23.052;2023-01-01T09:24:23;95215.81;;;8.89;100.00
8334;BME280;4204;43.004;23.052;2023-01-01T09:26:52;95210.47;;;8.99;100.00
8334;BME280;4204;43.004;23.052;2023-01-01T09:29:19;95214.94;;;9.09;100.00
8334;BME280;4204;43.004;23.052;2023-01-01T09:31:47;95209.38;;;9.20;100.00
8334;BME280;4204;43.004;23.052;2023-01-01T09:34:15;95210.94;;;9.26;100.00
8334;BME280;4204;43.004;23.052;2023-01-01T09:36:44;95211.75;;;9.17;100.00
8334;BME280;4204;43.004;23.052;2023-01-01T09:39:13;95207.28;;;9.12;100.00
8334;BME280;4204;43.004;23.052;2023-01-01T09:41:55;95205.09;;;9.19;100.00
8334;BME280;4204;43.004;23.052;2023-01-01T09:44:49;95206.69;;;9.30;100.00
8334;BME280;4204;43.004;23.052;2023-01-01T09:47:23;95201.91;;;9.32;100.00
8334;BME280;4204;43.004;23.052;2023-01-01T09:49:54;95198.69;;;9.35;100.00
8334;BME280;4204;43.004;23.052;2023-01-01T09:52:23;95197.53;;;9.56;100.00
8334;BME280;4204;43.004;23.052;2023-01-01T09:54:59;95197.19;;;9.73;100.00
8334;BME280;4204;43.004;23.052;2023-01-01T09:57:30;95197.19;;;9.78;100.00
8334;BME280;4204;43.004;23.052;2023-01-01T09:59:59;95198.47;;;9.86;100.00
8334;BME280;4204;43.004;23.052;2023-01-01T10:02:37;95202.59;;;10.12;100.00
8334;BME280;4204;43.004;23.052;2023-01-01T10:05:19;95200.41;;;10.24;100.00
8334;BME280;4204;43.004;23.052;2023-01-01T10:07:50;95192.88;;;10.31;100.00
8334;BME280;4204;43.004;23.052;2023-01-01T10:10:29;95201.25;;;10.53;100.00
8334;BME280;4204;43.004;23.052;2023-01-01T10:13:12;95200.78;;;10.75;100.00
8334;BME280;4204;43.004;23.052;2023-01-01T10:15:51;95194.84;;;10.83;100.00
8334;BME280;4204;43.004;23.052;2023-01-01T10:18:23;95194.13;;;10.77;100.00
8334;BME280;4204;43.004;23.052;2023-01-01T10:20:58;95180.13;;;10.62;100.00
8334;BME280;4204;43.004;23.052;2023-01-01T10:23:33;95185.19;;;10.63;100.00
8334;BME280;4204;43.004;23.052;2023-01-01T10:26:08;95182.03;;;10.61;100.00
8334;BME280;4204;43.004;23.052;2023-01-01T10:28:45;95173.03;;;10.57;100.00
8334;BME280;4204;43.004;23.052;2023-01-01T10:31:15;95177.94;;;10.74;100.00
8334;BME280;4204;43.004;23.052;2023-01-01T10:33:45;95168.72;;;10.90;100.00
8334;BME280;4204;43.004;23.052;2023-01-01T10:36:15;95157.97;;;11.00;100.00
8334;BME280;4204;43.004;23.052;2023-01-01T10:38:44;95154.97;;;11.06;100.00
8334;BME280;4204;43.004;23.052;2023-01-01T10:41:12;95159.38;;;11.16;100.00
8334;BME280;4204;43.004;23.052;2023-01-01T10:43:43;95154.00;;;10.97;100.00
8334;BME280;4204;43.004;23.052;2023-01-01T10:46:14;95144.00;;;10.84;100.00
8334;BME280;4204;43.004;23.052;2023-01-01T10:49:03;95148.59;;;11.26;100.00
8334;BME280;4204;43.004;23.052;2023-01-01T10:51:31;95138.44;;;11.52;100.00
8334;BME280;4204;43.004;23.052;2023-01-01T10:53:59;95139.22;;;11.76;100.00
8334;BME280;4204;43.004;23.052;2023-01-01T10:56:38;95146.50;;;11.89;100.00
8334;BME280;4204;43.004;23.052;2023-01-01T10:59:32;95138.56;;;11.84;100.00
8334;BME280;4204;43.004;23.052;2023-01-01T11:02:18;95129.88;;;11.78;100.00
8334;BME280;4204;43.004;23.052;2023-01-01T11:04:47;95138.00;;;11.87;100.00
8334;BME280;4204;43.004;23.052;2023-01-01T11:07:23;95134.13;;;11.98;100.00
8334;BME280;4204;43.004;23.052;2023-01-01T11:09:55;95132.53;;;11.97;100.00
8334;BME280;4204;43.004;23.052;2023-01-01T11:12:27;95131.56;;;12.06;100.00
8334;BME280;4204;43.004;23.052;2023-01-01T11:14:58;95131.88;;;12.05;100.00
8334;BME280;4204;43.004;23.052;2023-01-01T11:17:28;95125.38;;;12.11;100.00
8334;BME280;4204;43.004;23.052;2023-01-01T11:19:58;95115.81;;;12.10;100.00
8334;BME280;4204;43.004;23.052;2023-01-01T11:22:38;95121.53;;;12.17;100.00
8334;BME280;4204;43.004;23.052;2023-01-01T11:25:17;95114.03;;;12.19;100.00
8334;BME280;4204;43.004;23.052;2023-01-01T11:27:46;95109.81;;;12.18;100.00
8334;BME280;4204;43.004;23.052;2023-01-01T11:30:24;95111.19;;;12.48;100.00
8334;BME280;4204;43.004;23.052;2023-01-01T11:32:56;95094.59;;;12.64;100.00
8334;BME280;4204;43.004;23.052;2023-01-01T11:35:26;95097.38;;;12.73;100.00
8334;BME280;4204;43.004;23.052;2023-01-01T11:37:56;95104.81;;;12.89;100.00
8334;BME280;4204;43.004;23.052;2023-01-01T11:40:28;95086.13;;;12.76;100.00
8334;BME280;4204;43.004;23.052;2023-01-01T11:43:01;95099.00;;;12.87;100.00
8334;BME280;4204;43.004;23.052;2023-01-01T11:45:33;95100.72;;;13.11;100.00
8334;BME280;4204;43.004;23.052;2023-01-01T11:48:03;95094.50;;;13.15;100.00
8334;BME280;4204;43.004;23.052;2023-01-01T11:50:37;95092.56;;;13.02;100.00
8334;BME280;4204;43.004;23.052;2023-01-01T11:53:18;95102.94;;;13.03;100.00
8334;BME280;4204;43.004;23.052;2023-01-01T11:55:56;95095.69;;;13.09;100.00
8334;BME280;4204;43.004;23.052;2023-01-01T11:58:29;95097.97;;;13.16;100.00
8334;BME280;4204;43.004;23.052;2023-01-01T12:01:04;95094.00;;;13.13;100.00
8334;BME280;4204;43.004;23.052;2023-01-01T12:03:39;95092.00;;;13.19;100.00
8334;BME280;4204;43.004;23.052;2023-01-01T12:06:14;95078.84;;;13.22;100.00
8334;BME280;4204;43.004;23.052;2023-01-01T12:08:47;95084.91;;;13.28;100.00
8334;BME280;4204;43.004;23.052;2023-01-01T12:11:21;95088.56;;;13.32;100.00
8334;BME280;4204;43.004;23.052;2023-01-01T12:13:54;95075.78;;;13.29;100.00
8334;BME280;4204;43.004;23.052;2023-01-01T12:16:33;95078.13;;;13.44;100.00
8334;BME280;4204;43.004;23.052;2023-01-01T12:19:10;95075.28;;;13.40;100.00
8334;BME280;4204;43.004;23.052;2023-01-01T12:21:41;95076.13;;;13.49;100.00
8334;BME280;4204;43.004;23.052;2023-01-01T12:24:12;95080.50;;;13.45;100.00
8334;BME280;4204;43.004;23.052;2023-01-01T12:26:54;95067.31;;;13.62;100.00
8334;BME280;4204;43.004;23.052;2023-01-01T12:29:41;95079.88;;;13.75;100.00
8334;BME280;4204;43.004;23.052;2023-01-01T12:32:20;95067.41;;;13.93;100.00
8334;BME280;4204;43.004;23.052;2023-01-01T12:34:54;95073.31;;;14.04;100.00
8334;BME280;4204;43.004;23.052;2023-01-01T12:37:34;95065.47;;;14.07;100.00
8334;BME280;4204;43.004;23.052;2023-01-01T12:40:33;95070.72;;;14.12;100.00
8334;BME280;4204;43.004;23.052;2023-01-01T12:43:07;95072.34;;;14.00;100.00
8334;BME280;4204;43.004;23.052;2023-01-01T12:46:11;95070.25;;;13.97;100.00
8334;BME280;4204;43.004;23.052;2023-01-01T12:49:04;95062.00;;;13.85;100.00
8334;BME280;4204;43.004;23.052;2023-01-01T12:51:46;95065.06;;;13.92;100.00
8334;BME280;4204;43.004;23.052;2023-01-01T12:57:21;95061.47;;;13.96;100.00
8334;BME280;4204;43.004;23.052;2023-01-01T12:59:57;95070.47;;;14.00;100.00
8334;BME280;4204;43.004;23.052;2023-01-01T13:02:28;95055.50;;;13.99;100.00
8334;BME280;4204;43.004;23.052;2023-01-01T13:05:02;95052.41;;;14.06;100.00
8334;BME280;4204;43.004;23.052;2023-01-01T13:07:34;95061.81;;;14.03;100.00
8334;BME280;4204;43.004;23.052;2023-01-01T13:10:09;95058.72;;;14.10;100.00
8334;BME280;4204;43.004;23.052;2023-01-01T13:12:45;95059.03;;;14.08;100.00
8334;BME280;4204;43.004;23.052;2023-01-01T13:15:45;95061.56;;;14.13;100.00
8334;BME280;4204;43.004;23.052;2023-01-01T13:18:27;95056.22;;;14.13;100.00
8334;BME280;4204;43.004;23.052;2023-01-01T13:20:59;95059.38;;;14.15;100.00
8334;BME280;4204;43.004;23.052;2023-01-01T13:26:37;95056.78;;;14.02;100.00
8334;BME280;4204;43.004;23.052;2023-01-01T13:32:11;95057.34;;;14.12;100.00
8334;BME280;4204;43.004;23.052;2023-01-01T13:35:00;95072.53;;;14.03;100.00
8334;BME280;4204;43.004;23.052;2023-01-01T13:37:40;95060.75;;;14.04;100.00
8334;BME280;4204;43.004;23.052;2023-01-01T13:46:03;95064.28;;;14.35;100.00